»·PEaware :: N132KT KPSP-KLAS

N132KT :: KPSP-KLAS

FLIGHT INFORMATION

Flight Status: Arrived
Operator: Privately registered:
United States
More flights under this callsign
Pilot: Keith S. (1)
Aircraft: MITSUBISHI MU-2 MARQUISE
(MU2)
More flights by this aircraft type
Origin: KPSP Palm Springs Intl
United States
Destination: KLAS McCarran Intl
United States
More flights between these airports :: More routes between these airports
Route: +CATH1 PSP V386 SOGGI HEC CRESO4
File this flight plan on PilotEdge
Remarks:
Altitude:
(Current/Filed)
23,000ft
Speed:
(Current/Filed)
310kts
Departed: 30-Nov-17 02:41 PM
Arrived: 30-Nov-17 03:21 PM
Distance/Time
Traveled:
151nm/0:40
Distance/Time
To Go:
Arrived

Flight Plot

Page will automatically refresh every two minutes.

Flight plan parsing failed; only flown route is shown


Map Options




Map Legend


Flown Route
Filed Route
Departure Airport
Arrival Airport
Navaid (VOR, NDB)
Fix

Horizontal Profiles

Position Reports

Time Latitude Longitude Heading Altitude Ground
Speed
30-Nov-17 14:23 33.825353 -116.509541 90 426ft 0kts
30-Nov-17 14:24 33.825353 -116.509541 90 426ft 0kts
30-Nov-17 14:25 33.825353 -116.509541 90 426ft 0kts
30-Nov-17 14:26 33.825353 -116.509541 90 426ft 0kts
30-Nov-17 14:27 33.825353 -116.509541 90 426ft 0kts
30-Nov-17 14:28 33.825353 -116.509541 90 426ft 0kts
30-Nov-17 14:29 33.825353 -116.509541 90 426ft 0kts
30-Nov-17 14:30 33.825353 -116.509541 90 426ft 0kts
30-Nov-17 14:31 33.825353 -116.509541 90 426ft 0kts
30-Nov-17 14:32 33.825353 -116.509541 90 426ft 0kts
30-Nov-17 14:33 33.825353 -116.509541 90 426ft 0kts
30-Nov-17 14:34 33.825353 -116.509541 90 426ft 0kts
30-Nov-17 14:35 33.825353 -116.509540 91 426ft 0kts
30-Nov-17 14:36 33.825353 -116.509540 91 426ft 0kts
30-Nov-17 14:37 33.825353 -116.509541 91 426ft 0kts
30-Nov-17 14:38 33.825684 -116.508290 70 426ft 0kts
30-Nov-17 14:39 33.826266 -116.507270 37 426ft 3kts
30-Nov-17 14:40 33.825662 -116.506144 141 426ft 12kts
30-Nov-17 14:41 33.821335 -116.502298 141 426ft 22kts
30-Nov-17 14:42 33.818505 -116.498948 87 426ft 0kts
30-Nov-17 14:43 33.818505 -116.498948 87 426ft 0kts
30-Nov-17 14:44 33.818505 -116.498948 87 426ft 0kts
30-Nov-17 14:45 33.818544 -116.498513 75 426ft 8kts
30-Nov-17 14:46 33.827146 -116.505411 323 434ft 144kts
30-Nov-17 14:47 33.865072 -116.540781 317 2264ft 187kts
30-Nov-17 14:48 33.905897 -116.579231 344 4473ft 198kts
30-Nov-17 14:49 33.955305 -116.552631 3 6133ft 225kts
30-Nov-17 14:50 34.017556 -116.543768 3 8049ft 232kts
30-Nov-17 14:51 34.084006 -116.535314 4 9672ft 248kts
30-Nov-17 14:52 34.150238 -116.535027 340 11202ft 259kts
30-Nov-17 14:53 34.216901 -116.567299 341 12934ft 262kts
30-Nov-17 14:54 34.288503 -116.588709 342 14615ft 269kts
30-Nov-17 14:55 34.363085 -116.594329 15 16184ft 280kts
30-Nov-17 14:56 34.439440 -116.568336 8 17719ft 290kts
30-Nov-17 14:57 34.518140 -116.543478 17 19247ft 298kts
30-Nov-17 14:58 34.600036 -116.520681 1 20606ft 308kts
30-Nov-17 14:59 34.683289 -116.495389 19 22051ft 317kts
30-Nov-17 15:00 34.764232 -116.461290 33 23249ft 328kts
30-Nov-17 15:01 34.850753 -116.418035 49 23265ft 345kts
30-Nov-17 15:02 34.907951 -116.323054 55 23156ft 353kts
30-Nov-17 15:03 34.972258 -116.232447 47 23146ft 355kts
30-Nov-17 15:04 35.037006 -116.150404 47 23112ft 355kts
30-Nov-17 15:05 35.101526 -116.066108 49 22275ft 346kts
30-Nov-17 15:06 35.157458 -115.975415 53 20787ft 338kts
30-Nov-17 15:07 35.225664 -115.897709 41 19191ft 332kts
30-Nov-17 15:08 35.289335 -115.818380 52 17509ft 324kts
30-Nov-17 15:09 35.347472 -115.736278 44 15522ft 311kts
30-Nov-17 15:10 35.404511 -115.661083 52 13828ft 297kts
30-Nov-17 15:11 35.461716 -115.589224 46 11987ft 292kts
30-Nov-17 15:12 35.514955 -115.514246 48 9746ft 290kts
30-Nov-17 15:13 35.569102 -115.440084 46 8148ft 288kts
30-Nov-17 15:14 35.621988 -115.369223 47 7136ft 276kts
30-Nov-17 15:15 35.671773 -115.303034 44 7121ft 272kts
30-Nov-17 15:16 35.724338 -115.233117 49 7067ft 278kts
30-Nov-17 15:17 35.776744 -115.163173 34 7080ft 278kts
30-Nov-17 15:18 35.849111 -115.137396 11 6969ft 271kts
30-Nov-17 15:19 35.921352 -115.116437 11 7049ft 265kts
30-Nov-17 15:20 35.993086 -115.093942 12 7126ft 268kts
30-Nov-17 15:21 36.064259 -115.074706 5 6780ft 249kts
30-Nov-17 15:22 36.127509 -115.054578 13 5555ft 229kts
30-Nov-17 15:23 36.167584 -115.087490 281 4597ft 182kts
30-Nov-17 15:24 36.142633 -115.130412 213 3890ft 139kts
30-Nov-17 15:25 36.112166 -115.149521 205 2656ft 123kts
30-Nov-17 15:26 36.090307 -115.161823 204 2115ft 24kts
30-Nov-17 15:27 36.089363 -115.163404 296 2115ft 0kts
30-Nov-17 15:28 36.089363 -115.163404 296 2115ft 0kts
30-Nov-17 15:29 36.089418 -115.163540 296 2115ft 5kts
30-Nov-17 15:30 36.090709 -115.164680 257 2115ft 8kts
30-Nov-17 15:31 36.092094 -115.163987 5 2115ft 6kts
30-Nov-17 15:32 36.092399 -115.163950 6 2115ft 0kts
30-Nov-17 15:33 36.092399 -115.163950 6 2115ft 0kts
30-Nov-17 15:34 36.101177 -115.155541 205 2207ft 114kts
30-Nov-17 15:35 36.092399 -115.163950 6 2115ft 0kts
30-Nov-17 15:36 36.092399 -115.163950 6 2115ft 0kts
30-Nov-17 15:37 36.092399 -115.163950 6 2115ft 0kts
30-Nov-17 15:38 36.092399 -115.163950 6 2115ft 0kts
30-Nov-17 15:39 36.092399 -115.163950 6 2115ft 0kts
30-Nov-17 15:40 36.092399 -115.163950 6 2115ft 0kts

Navigation Log

Ident Type
Flight plan parsing failed, navigation log unavailable